sensor_id;sensor_type;location;lat;lon;timestamp;P1;durP1;ratioP1;P2;durP2;ratioP2
69954;SDS011;57279;55.912;37.490;2023-04-24T05:34:00;24.00;;;9.90;;
69954;SDS011;57279;55.912;37.490;2023-04-24T05:36:26;20.25;;;9.75;;
69954;SDS011;57279;55.912;37.490;2023-04-24T05:38:52;22.88;;;8.10;;
69954;SDS011;57279;55.912;37.490;2023-04-24T05:41:19;21.10;;;10.00;;
69954;SDS011;57279;55.912;37.490;2023-04-24T05:43:44;19.98;;;9.50;;
69954;SDS011;57279;55.912;37.490;2023-04-24T05:46:11;21.15;;;9.77;;
69954;SDS011;57279;55.912;37.490;2023-04-24T05:48:38;22.27;;;9.50;;
69954;SDS011;57279;55.912;37.490;2023-04-24T05:51:04;24.20;;;9.20;;
69954;SDS011;57279;55.912;37.490;2023-04-24T05:53:29;21.90;;;9.73;;
69954;SDS011;57279;55.912;37.490;2023-04-24T05:55:55;27.10;;;9.13;;
69954;SDS011;57279;55.912;37.490;2023-04-24T05:58:22;22.77;;;7.97;;
69954;SDS011;57279;55.912;37.490;2023-04-24T06:00:48;23.88;;;9.77;;
69954;SDS011;57279;55.912;37.490;2023-04-24T06:03:16;20.38;;;7.65;;
69954;SDS011;57279;55.912;37.490;2023-04-24T06:05:41;17.73;;;7.00;;
69954;SDS011;57279;55.912;37.490;2023-04-24T06:08:07;21.67;;;8.75;;
69954;SDS011;57279;55.912;37.490;2023-04-24T06:10:37;24.65;;;7.70;;
69954;SDS011;57279;55.912;37.490;2023-04-24T06:13:04;27.45;;;8.70;;
69954;SDS011;57279;55.912;37.490;2023-04-24T06:15:31;26.83;;;9.70;;
69954;SDS011;57279;55.912;37.490;2023-04-24T06:18:09;23.00;;;10.00;;
69954;SDS011;57279;55.912;37.490;2023-04-24T06:20:36;19.48;;;7.93;;
69954;SDS011;57279;55.912;37.490;2023-04-24T06:23:02;16.23;;;7.53;;
69954;SDS011;57279;55.912;37.490;2023-04-24T06:25:27;15.88;;;6.70;;
69954;SDS011;57279;55.912;37.490;2023-04-24T06:27:53;18.33;;;8.45;;
69954;SDS011;57279;55.912;37.490;2023-04-24T06:30:19;20.80;;;7.47;;
69954;SDS011;57279;55.912;37.490;2023-04-24T06:32:45;17.17;;;8.27;;
69954;SDS011;57279;55.912;37.490;2023-04-24T06:35:11;18.58;;;6.30;;
69954;SDS011;57279;55.912;37.490;2023-04-24T06:37:39;20.42;;;7.93;;
69954;SDS011;57279;55.912;37.490;2023-04-24T06:40:05;23.88;;;6.40;;
69954;SDS011;57279;55.912;37.490;2023-04-24T06:42:31;13.70;;;6.72;;
69954;SDS011;57279;55.912;37.490;2023-04-24T06:44:57;17.13;;;5.18;;
69954;SDS011;57279;55.912;37.490;2023-04-24T06:47:23;13.15;;;4.88;;
69954;SDS011;57279;55.912;37.490;2023-04-24T06:49:48;14.18;;;4.80;;
69954;SDS011;57279;55.912;37.490;2023-04-24T06:52:16;13.40;;;4.72;;
69954;SDS011;57279;55.912;37.490;2023-04-24T06:54:41;15.02;;;5.30;;
69954;SDS011;57279;55.912;37.490;2023-04-24T06:57:08;13.82;;;4.10;;
69954;SDS011;57279;55.912;37.490;2023-04-24T06:59:34;13.63;;;4.65;;
69954;SDS011;57279;55.912;37.490;2023-04-24T07:01:59;14.35;;;4.57;;
69954;SDS011;57279;55.912;37.490;2023-04-24T07:04:25;15.70;;;4.55;;
69954;SDS011;57279;55.912;37.490;2023-04-24T07:06:51;25.15;;;5.20;;
69954;SDS011;57279;55.912;37.490;2023-04-24T07:09:19;12.43;;;4.32;;
69954;SDS011;57279;55.912;37.490;2023-04-24T07:11:45;18.35;;;4.60;;
69954;SDS011;57279;55.912;37.490;2023-04-24T07:14:11;15.10;;;6.28;;
69954;SDS011;57279;55.912;37.490;2023-04-24T07:16:37;16.63;;;5.15;;
69954;SDS011;57279;55.912;37.490;2023-04-24T07:19:03;13.98;;;5.03;;
69954;SDS011;57279;55.912;37.490;2023-04-24T07:21:29;14.45;;;5.05;;
69954;SDS011;57279;55.912;37.490;2023-04-24T07:23:57;22.20;;;5.55;;
69954;SDS011;57279;55.912;37.490;2023-04-24T07:26:23;16.42;;;6.35;;
69954;SDS011;57279;55.912;37.490;2023-04-24T07:28:49;26.45;;;5.07;;
69954;SDS011;57279;55.912;37.490;2023-04-24T07:31:14;14.35;;;4.85;;
69954;SDS011;57279;55.912;37.490;2023-04-24T07:33:40;16.67;;;5.60;;
69954;SDS011;57279;55.912;37.490;2023-04-24T07:36:06;18.42;;;5.07;;
69954;SDS011;57279;55.912;37.490;2023-04-24T07:38:32;15.95;;;4.93;;
69954;SDS011;57279;55.912;37.490;2023-04-24T07:40:57;13.25;;;6.00;;
69954;SDS011;57279;55.912;37.490;2023-04-24T07:43:23;13.35;;;4.53;;
69954;SDS011;57279;55.912;37.490;2023-04-24T07:45:52;12.88;;;5.10;;
69954;SDS011;57279;55.912;37.490;2023-04-24T07:48:18;13.68;;;6.05;;
69954;SDS011;57279;55.912;37.490;2023-04-24T07:50:44;17.80;;;5.25;;
69954;SDS011;57279;55.912;37.490;2023-04-24T07:53:10;20.55;;;6.30;;
69954;SDS011;57279;55.912;37.490;2023-04-24T07:55:35;14.18;;;4.78;;
69954;SDS011;57279;55.912;37.490;2023-04-24T07:58:01;10.10;;;4.45;;
69954;SDS011;57279;55.912;37.490;2023-04-24T08:00:27;17.92;;;4.93;;
69954;SDS011;57279;55.912;37.490;2023-04-24T08:02:52;15.70;;;4.75;;
69954;SDS011;57279;55.912;37.490;2023-04-24T08:05:18;13.40;;;5.55;;
69954;SDS011;57279;55.912;37.490;2023-04-24T08:07:45;11.77;;;5.25;;
69954;SDS011;57279;55.912;37.490;2023-04-24T08:10:13;14.63;;;6.38;;
69954;SDS011;57279;55.912;37.490;2023-04-24T08:12:40;14.50;;;5.25;;
69954;SDS011;57279;55.912;37.490;2023-04-24T08:15:06;14.73;;;4.43;;
69954;SDS011;57279;55.912;37.490;2023-04-24T08:17:33;14.93;;;5.40;;
69954;SDS011;57279;55.912;37.490;2023-04-24T08:20:00;12.57;;;4.88;;
69954;SDS011;57279;55.912;37.490;2023-04-24T08:22:27;12.25;;;4.80;;
69954;SDS011;57279;55.912;37.490;2023-04-24T08:24:53;12.75;;;4.40;;
69954;SDS011;57279;55.912;37.490;2023-04-24T08:27:19;12.85;;;4.35;;
69954;SDS011;57279;55.912;37.490;2023-04-24T08:29:45;11.23;;;3.80;;
69954;SDS011;57279;55.912;37.490;2023-04-24T08:32:11;12.63;;;5.05;;
69954;SDS011;57279;55.912;37.490;2023-04-24T08:34:36;14.77;;;4.60;;
69954;SDS011;57279;55.912;37.490;2023-04-24T08:37:02;12.90;;;5.28;;
69954;SDS011;57279;55.912;37.490;2023-04-24T08:39:28;12.02;;;4.43;;
69954;SDS011;57279;55.912;37.490;2023-04-24T08:41:54;10.70;;;4.63;;
69954;SDS011;57279;55.912;37.490;2023-04-24T08:44:21;11.18;;;4.03;;
69954;SDS011;57279;55.912;37.490;2023-04-24T08:46:49;24.90;;;6.13;;
69954;SDS011;57279;55.912;37.490;2023-04-24T08:49:17;13.32;;;4.57;;
69954;SDS011;57279;55.912;37.490;2023-04-24T08:51:43;13.85;;;4.38;;
69954;SDS011;57279;55.912;37.490;2023-04-24T08:54:11;14.10;;;4.47;;
69954;SDS011;57279;55.912;37.490;2023-04-24T08:56:37;12.18;;;4.10;;
69954;SDS011;57279;55.912;37.490;2023-04-24T08:59:06;11.75;;;4.40;;
69954;SDS011;57279;55.912;37.490;2023-04-24T09:01:32;11.98;;;4.07;;
69954;SDS011;57279;55.912;37.490;2023-04-24T09:04:00;11.43;;;4.20;;
69954;SDS011;57279;55.912;37.490;2023-04-24T09:06:28;10.02;;;4.03;;
69954;SDS011;57279;55.912;37.490;2023-04-24T09:08:59;14.43;;;6.22;;
69954;SDS011;57279;55.912;37.490;2023-04-24T09:11:26;11.52;;;4.40;;
69954;SDS011;57279;55.912;37.490;2023-04-24T09:13:52;16.83;;;5.03;;
69954;SDS011;57279;55.912;37.490;2023-04-24T09:16:20;18.42;;;4.80;;
69954;SDS011;57279;55.912;37.490;2023-04-24T09:18:46;13.10;;;4.38;;
69954;SDS011;57279;55.912;37.490;2023-04-24T09:21:11;18.92;;;4.55;;
69954;SDS011;57279;55.912;37.490;2023-04-24T09:23:37;12.52;;;4.20;;
69954;SDS011;57279;55.912;37.490;2023-04-24T09:26:04;16.20;;;4.13;;
69954;SDS011;57279;55.912;37.490;2023-04-24T09:28:34;10.77;;;3.72;;
69954;SDS011;57279;55.912;37.490;2023-04-24T09:33:35;10.85;;;4.20;;
69954;SDS011;57279;55.912;37.490;2023-04-24T09:36:01;12.88;;;4.15;;
69954;SDS011;57279;55.912;37.490;2023-04-24T09:38:37;12.93;;;5.75;;
69954;SDS011;57279;55.912;37.490;2023-04-24T09:41:07;14.23;;;4.35;;
69954;SDS011;57279;55.912;37.490;2023-04-24T09:43:34;11.75;;;5.22;;
69954;SDS011;57279;55.912;37.490;2023-04-24T09:46:04;17.17;;;4.47;;
69954;SDS011;57279;55.912;37.490;2023-04-24T09:48:34;14.95;;;4.68;;
69954;SDS011;57279;55.912;37.490;2023-04-24T09:51:02;10.30;;;3.92;;
69954;SDS011;57279;55.912;37.490;2023-04-24T09:53:29;15.73;;;3.88;;
69954;SDS011;57279;55.912;37.490;2023-04-24T09:56:00;12.68;;;5.00;;
69954;SDS011;57279;55.912;37.490;2023-04-24T09:58:28;13.70;;;4.28;;
69954;SDS011;57279;55.912;37.490;2023-04-24T10:00:55;14.85;;;5.00;;
69954;SDS011;57279;55.912;37.490;2023-04-24T10:03:25;15.52;;;4.20;;
69954;SDS011;57279;55.912;37.490;2023-04-24T10:05:52;11.77;;;4.63;;
69954;SDS011;57279;55.912;37.490;2023-04-24T10:08:18;9.60;;;3.72;;
69954;SDS011;57279;55.912;37.490;2023-04-24T10:10:44;13.75;;;4.28;;
69954;SDS011;57279;55.912;37.490;2023-04-24T10:13:11;12.20;;;6.15;;
69954;SDS011;57279;55.912;37.490;2023-04-24T10:15:39;12.55;;;4.32;;
69954;SDS011;57279;55.912;37.490;2023-04-24T10:18:06;12.65;;;4.28;;
69954;SDS011;57279;55.912;37.490;2023-04-24T10:20:34;11.68;;;4.10;;
69954;SDS011;57279;55.912;37.490;2023-04-24T10:23:01;10.90;;;4.40;;
69954;SDS011;57279;55.912;37.490;2023-04-24T10:25:27;14.75;;;5.28;;
69954;SDS011;57279;55.912;37.490;2023-04-24T10:27:58;11.93;;;4.13;;
69954;SDS011;57279;55.912;37.490;2023-04-24T10:30:29;11.45;;;3.65;;
69954;SDS011;57279;55.912;37.490;2023-04-24T10:33:03;10.82;;;4.45;;
69954;SDS011;57279;55.912;37.490;2023-04-24T10:35:31;14.02;;;4.28;;
69954;SDS011;57279;55.912;37.490;2023-04-24T10:37:59;12.77;;;4.43;;
69954;SDS011;57279;55.912;37.490;2023-04-24T10:40:31;9.48;;;4.93;;
69954;SDS011;57279;55.912;37.490;2023-04-24T10:42:59;13.10;;;4.18;;
69954;SDS011;57279;55.912;37.490;2023-04-24T10:45:27;12.68;;;4.28;;
69954;SDS011;57279;55.912;37.490;2023-04-24T10:47:54;11.10;;;4.53;;
69954;SDS011;57279;55.912;37.490;2023-04-24T10:50:24;11.23;;;4.10;;
69954;SDS011;57279;55.912;37.490;2023-04-24T10:52:51;10.70;;;4.07;;
69954;SDS011;57279;55.912;37.490;2023-04-24T10:55:39;12.85;;;4.82;;
69954;SDS011;57279;55.912;37.490;2023-04-24T10:58:06;15.13;;;4.00;;
69954;SDS011;57279;55.912;37.490;2023-04-24T11:00:32;25.38;;;5.18;;
69954;SDS011;57279;55.912;37.490;2023-04-24T12:52:38;19.30;;;4.72;;
69954;SDS011;57279;55.912;37.490;2023-04-24T12:55:04;22.23;;;4.10;;
69954;SDS011;57279;55.912;37.490;2023-04-24T12:57:33;13.05;;;4.13;;
69954;SDS011;57279;55.912;37.490;2023-04-24T13:00:00;8.40;;;4.22;;
69954;SDS011;57279;55.912;37.490;2023-04-24T13:02:29;10.95;;;4.80;;
69954;SDS011;57279;55.912;37.490;2023-04-24T13:04:56;10.55;;;4.53;;
69954;SDS011;57279;55.912;37.490;2023-04-24T13:07:22;11.05;;;4.15;;
69954;SDS011;57279;55.912;37.490;2023-04-24T13:09:49;10.10;;;4.72;;
69954;SDS011;57279;55.912;37.490;2023-04-24T13:12:15;9.40;;;3.60;;
69954;SDS011;57279;55.912;37.490;2023-04-24T13:14:41;10.68;;;5.00;;
69954;SDS011;57279;55.912;37.490;2023-04-24T13:17:07;12.82;;;5.10;;
69954;SDS011;57279;55.912;37.490;2023-04-24T13:19:36;9.40;;;4.88;;
69954;SDS011;57279;55.912;37.490;2023-04-24T13:22:03;13.20;;;5.28;;
69954;SDS011;57279;55.912;37.490;2023-04-24T13:24:29;12.02;;;5.53;;
69954;SDS011;57279;55.912;37.490;2023-04-24T13:26:56;13.88;;;5.22;;
69954;SDS011;57279;55.912;37.490;2023-04-24T13:29:22;11.57;;;5.60;;
69954;SDS011;57279;55.912;37.490;2023-04-24T13:31:52;13.43;;;6.15;;
69954;SDS011;57279;55.912;37.490;2023-04-24T13:34:24;13.65;;;5.57;;
69954;SDS011;57279;55.912;37.490;2023-04-24T13:36:52;13.05;;;4.68;;
69954;SDS011;57279;55.912;37.490;2023-04-24T13:39:20;13.00;;;4.85;;
69954;SDS011;57279;55.912;37.490;2023-04-24T13:41:46;12.73;;;4.20;;
69954;SDS011;57279;55.912;37.490;2023-04-24T13:44:13;10.65;;;5.28;;
69954;SDS011;57279;55.912;37.490;2023-04-24T13:46:40;10.95;;;5.38;;
69954;SDS011;57279;55.912;37.490;2023-04-24T13:49:08;10.65;;;5.05;;
69954;SDS011;57279;55.912;37.490;2023-04-24T13:51:34;14.25;;;4.70;;
69954;SDS011;57279;55.912;37.490;2023-04-24T13:54:00;14.50;;;4.18;;
69954;SDS011;57279;55.912;37.490;2023-04-24T13:56:26;12.13;;;3.97;;
69954;SDS011;57279;55.912;37.490;2023-04-24T13:58:52;8.93;;;4.13;;
69954;SDS011;57279;55.912;37.490;2023-04-24T14:01:19;12.93;;;3.88;;
69954;SDS011;57279;55.912;37.490;2023-04-24T14:03:49;11.30;;;3.13;;
69954;SDS011;57279;55.912;37.490;2023-04-24T14:06:15;15.02;;;4.95;;
69954;SDS011;57279;55.912;37.490;2023-04-24T14:08:41;10.32;;;3.97;;
69954;SDS011;57279;55.912;37.490;2023-04-24T14:11:06;16.30;;;4.72;;
69954;SDS011;57279;55.912;37.490;2023-04-24T14:13:32;14.13;;;3.35;;
69954;SDS011;57279;55.912;37.490;2023-04-24T14:15:58;14.68;;;4.03;;
69954;SDS011;57279;55.912;37.490;2023-04-24T14:18:23;12.90;;;3.47;;
69954;SDS011;57279;55.912;37.490;2023-04-24T14:20:49;11.50;;;2.72;;
69954;SDS011;57279;55.912;37.490;2023-04-24T14:23:15;16.40;;;3.38;;
69954;SDS011;57279;55.912;37.490;2023-04-24T14:25:41;23.20;;;3.88;;
69954;SDS011;57279;55.912;37.490;2023-04-24T14:28:06;18.90;;;3.78;;
69954;SDS011;57279;55.912;37.490;2023-04-24T14:30:32;11.90;;;3.50;;
69954;SDS011;57279;55.912;37.490;2023-04-24T14:32:58;12.35;;;3.17;;
69954;SDS011;57279;55.912;37.490;2023-04-24T14:35:23;13.25;;;3.55;;
69954;SDS011;57279;55.912;37.490;2023-04-24T14:37:49;15.48;;;3.70;;
69954;SDS011;57279;55.912;37.490;2023-04-24T14:40:15;12.52;;;3.47;;
69954;SDS011;57279;55.912;37.490;2023-04-24T14:42:41;13.35;;;3.60;;
69954;SDS011;57279;55.912;37.490;2023-04-24T14:45:06;17.75;;;3.33;;
69954;SDS011;57279;55.912;37.490;2023-04-24T14:47:33;10.73;;;3.13;;
69954;SDS011;57279;55.912;37.490;2023-04-24T14:49:59;26.48;;;3.60;;
69954;SDS011;57279;55.912;37.490;2023-04-24T14:52:25;9.25;;;2.95;;
69954;SDS011;57279;55.912;37.490;2023-04-24T14:54:55;19.05;;;3.15;;
69954;SDS011;57279;55.912;37.490;2023-04-24T14:57:21;9.60;;;3.08;;
69954;SDS011;57279;55.912;37.490;2023-04-24T14:59:47;15.75;;;3.20;;
69954;SDS011;57279;55.912;37.490;2023-04-24T15:02:13;12.55;;;3.70;;
69954;SDS011;57279;55.912;37.490;2023-04-24T15:04:38;9.98;;;4.57;;
69954;SDS011;57279;55.912;37.490;2023-04-24T15:07:04;8.55;;;3.00;;
69954;SDS011;57279;55.912;37.490;2023-04-24T15:09:30;17.95;;;3.08;;
69954;SDS011;57279;55.912;37.490;2023-04-24T15:11:57;20.50;;;4.40;;
69954;SDS011;57279;55.912;37.490;2023-04-24T15:14:23;12.38;;;3.47;;
69954;SDS011;57279;55.912;37.490;2023-04-24T15:16:49;14.55;;;3.33;;
69954;SDS011;57279;55.912;37.490;2023-04-24T15:19:15;20.05;;;3.42;;
69954;SDS011;57279;55.912;37.490;2023-04-24T15:21:40;21.83;;;4.18;;
69954;SDS011;57279;55.912;37.490;2023-04-24T15:24:07;10.90;;;3.33;;
69954;SDS011;57279;55.912;37.490;2023-04-24T15:26:33;17.65;;;3.28;;
69954;SDS011;57279;55.912;37.490;2023-04-24T15:28:59;19.25;;;3.30;;
69954;SDS011;57279;55.912;37.490;2023-04-24T15:31:25;21.05;;;7.18;;
69954;SDS011;57279;55.912;37.490;2023-04-24T15:33:50;27.05;;;8.35;;
69954;SDS011;57279;55.912;37.490;2023-04-24T15:36:16;54.42;;;29.00;;
69954;SDS011;57279;55.912;37.490;2023-04-24T15:38:43;27.88;;;13.10;;
69954;SDS011;57279;55.912;37.490;2023-04-24T15:41:10;30.60;;;11.07;;
69954;SDS011;57279;55.912;37.490;2023-04-24T15:43:36;47.72;;;20.85;;
69954;SDS011;57279;55.912;37.490;2023-04-24T15:46:04;20.25;;;10.20;;
69954;SDS011;57279;55.912;37.490;2023-04-24T15:48:30;21.55;;;8.90;;
69954;SDS011;57279;55.912;37.490;2023-04-24T15:50:56;18.05;;;4.18;;
69954;SDS011;57279;55.912;37.490;2023-04-24T15:53:22;16.77;;;3.63;;
69954;SDS011;57279;55.912;37.490;2023-04-24T15:55:48;12.05;;;3.45;;
69954;SDS011;57279;55.912;37.490;2023-04-24T15:58:14;19.27;;;4.28;;
69954;SDS011;57279;55.912;37.490;2023-04-24T16:00:40;11.25;;;3.75;;
69954;SDS011;57279;55.912;37.490;2023-04-24T16:03:06;23.02;;;3.58;;
69954;SDS011;57279;55.912;37.490;2023-04-24T16:05:32;23.05;;;3.95;;
69954;SDS011;57279;55.912;37.490;2023-04-24T16:07:58;13.55;;;3.35;;
69954;SDS011;57279;55.912;37.490;2023-04-24T16:10:24;13.75;;;3.60;;
69954;SDS011;57279;55.912;37.490;2023-04-24T16:12:50;13.20;;;3.50;;
69954;SDS011;57279;55.912;37.490;2023-04-24T16:15:17;13.63;;;4.18;;
69954;SDS011;57279;55.912;37.490;2023-04-24T16:17:43;10.88;;;4.40;;
69954;SDS011;57279;55.912;37.490;2023-04-24T16:20:09;16.63;;;3.50;;
69954;SDS011;57279;55.912;37.490;2023-04-24T16:22:35;15.90;;;4.43;;
69954;SDS011;57279;55.912;37.490;2023-04-24T16:25:02;11.15;;;3.22;;
69954;SDS011;57279;55.912;37.490;2023-04-24T16:27:28;12.38;;;4.30;;
69954;SDS011;57279;55.912;37.490;2023-04-24T16:29:54;34.15;;;4.47;;
69954;SDS011;57279;55.912;37.490;2023-04-24T16:32:20;15.25;;;3.40;;
69954;SDS011;57279;55.912;37.490;2023-04-24T16:34:45;21.90;;;4.40;;
69954;SDS011;57279;55.912;37.490;2023-04-24T16:37:11;16.90;;;4.50;;
69954;SDS011;57279;55.912;37.490;2023-04-24T16:39:37;17.33;;;4.82;;
69954;SDS011;57279;55.912;37.490;2023-04-24T16:42:03;18.60;;;3.10;;
69954;SDS011;57279;55.912;37.490;2023-04-24T16:44:29;13.15;;;4.47;;
69954;SDS011;57279;55.912;37.490;2023-04-24T16:46:55;15.68;;;4.35;;
69954;SDS011;57279;55.912;37.490;2023-04-24T16:49:21;11.25;;;3.70;;
69954;SDS011;57279;55.912;37.490;2023-04-24T16:51:48;9.38;;;3.33;;
69954;SDS011;57279;55.912;37.490;2023-04-24T16:54:14;17.83;;;3.42;;
69954;SDS011;57279;55.912;37.490;2023-04-24T16:56:40;18.52;;;3.55;;
69954;SDS011;57279;55.912;37.490;2023-04-24T16:59:06;15.98;;;4.65;;
69954;SDS011;57279;55.912;37.490;2023-04-24T17:01:32;12.23;;;3.45;;
69954;SDS011;57279;55.912;37.490;2023-04-24T17:03:58;13.93;;;4.03;;
69954;SDS011;57279;55.912;37.490;2023-04-24T17:06:23;13.80;;;3.53;;
69954;SDS011;57279;55.912;37.490;2023-04-24T17:08:49;24.83;;;3.67;;
69954;SDS011;57279;55.912;37.490;2023-04-24T17:11:15;10.13;;;2.80;;
69954;SDS011;57279;55.912;37.490;2023-04-24T17:13:41;15.05;;;4.55;;
69954;SDS011;57279;55.912;37.490;2023-04-24T17:16:06;15.63;;;3.13;;
69954;SDS011;57279;55.912;37.490;2023-04-24T17:18:32;12.02;;;3.53;;
69954;SDS011;57279;55.912;37.490;2023-04-24T17:20:58;13.32;;;3.25;;
69954;SDS011;57279;55.912;37.490;2023-04-24T17:23:24;10.73;;;3.25;;
69954;SDS011;57279;55.912;37.490;2023-04-24T17:25:49;16.85;;;3.45;;
69954;SDS011;57279;55.912;37.490;2023-04-24T17:28:33;9.27;;;3.72;;
69954;SDS011;57279;55.912;37.490;2023-04-24T17:30:59;14.75;;;4.00;;
69954;SDS011;57279;55.912;37.490;2023-04-24T17:33:29;11.18;;;4.30;;
69954;SDS011;57279;55.912;37.490;2023-04-24T17:35:55;12.23;;;3.80;;
69954;SDS011;57279;55.912;37.490;2023-04-24T17:38:22;10.38;;;3.03;;
69954;SDS011;57279;55.912;37.490;2023-04-24T17:40:48;15.98;;;3.60;;
69954;SDS011;57279;55.912;37.490;2023-04-24T17:43:18;15.85;;;4.47;;
69954;SDS011;57279;55.912;37.490;2023-04-24T17:45:48;14.23;;;3.38;;
69954;SDS011;57279;55.912;37.490;2023-04-24T17:48:15;11.60;;;4.10;;
69954;SDS011;57279;55.912;37.490;2023-04-24T17:50:42;17.48;;;4.05;;
69954;SDS011;57279;55.912;37.490;2023-04-24T17:53:08;16.52;;;3.70;;
69954;SDS011;57279;55.912;37.490;2023-04-24T17:55:35;25.15;;;5.50;;
69954;SDS011;57279;55.912;37.490;2023-04-24T17:58:02;17.08;;;4.78;;
69954;SDS011;57279;55.912;37.490;2023-04-24T18:00:28;15.63;;;5.60;;
69954;SDS011;57279;55.912;37.490;2023-04-24T18:02:54;31.20;;;5.03;;
69954;SDS011;57279;55.912;37.490;2023-04-24T18:05:26;20.60;;;4.55;;
69954;SDS011;57279;55.912;37.490;2023-04-24T18:07:55;20.75;;;5.10;;
69954;SDS011;57279;55.912;37.490;2023-04-24T18:10:25;24.08;;;5.43;;
69954;SDS011;57279;55.912;37.490;2023-04-24T18:12:52;14.02;;;4.43;;
69954;SDS011;57279;55.912;37.490;2023-04-24T18:15:18;23.88;;;5.50;;
69954;SDS011;57279;55.912;37.490;2023-04-24T18:17:44;20.60;;;5.03;;
69954;SDS011;57279;55.912;37.490;2023-04-24T18:20:11;22.98;;;4.75;;
69954;SDS011;57279;55.912;37.490;2023-04-24T18:22:37;19.02;;;4.93;;
69954;SDS011;57279;55.912;37.490;2023-04-24T18:25:04;17.10;;;4.90;;
69954;SDS011;57279;55.912;37.490;2023-04-24T18:27:30;19.58;;;5.57;;
69954;SDS011;57279;55.912;37.490;2023-04-24T18:29:56;18.15;;;4.80;;
69954;SDS011;57279;55.912;37.490;2023-04-24T18:32:22;17.55;;;4.80;;
69954;SDS011;57279;55.912;37.490;2023-04-24T18:34:48;15.45;;;5.03;;
69954;SDS011;57279;55.912;37.490;2023-04-24T18:37:14;18.05;;;4.53;;
69954;SDS011;57279;55.912;37.490;2023-04-24T18:39:40;19.42;;;5.13;;
69954;SDS011;57279;55.912;37.490;2023-04-24T18:42:06;17.45;;;4.82;;
69954;SDS011;57279;55.912;37.490;2023-04-24T18:44:31;24.70;;;5.00;;
69954;SDS011;57279;55.912;37.490;2023-04-24T18:46:57;20.58;;;4.63;;
69954;SDS011;57279;55.912;37.490;2023-04-24T18:49:22;18.77;;;4.28;;
69954;SDS011;57279;55.912;37.490;2023-04-24T18:51:48;19.65;;;5.55;;
69954;SDS011;57279;55.912;37.490;2023-04-24T18:54:14;20.80;;;5.25;;
69954;SDS011;57279;55.912;37.490;2023-04-24T18:56:39;16.63;;;4.07;;
69954;SDS011;57279;55.912;37.490;2023-04-24T18:59:05;22.67;;;4.90;;
69954;SDS011;57279;55.912;37.490;2023-04-24T19:01:31;16.63;;;4.40;;
69954;SDS011;57279;55.912;37.490;2023-04-24T19:03:58;17.45;;;3.53;;
69954;SDS011;57279;55.912;37.490;2023-04-24T19:06:24;17.02;;;3.97;;
69954;SDS011;57279;55.912;37.490;2023-04-24T19:08:50;12.85;;;5.07;;
69954;SDS011;57279;55.912;37.490;2023-04-24T19:11:15;15.30;;;4.53;;
69954;SDS011;57279;55.912;37.490;2023-04-24T19:13:41;13.82;;;4.03;;
69954;SDS011;57279;55.912;37.490;2023-04-24T19:16:07;23.92;;;4.78;;
69954;SDS011;57279;55.912;37.490;2023-04-24T19:18:32;21.45;;;5.28;;
69954;SDS011;57279;55.912;37.490;2023-04-24T19:20:58;20.02;;;5.15;;
69954;SDS011;57279;55.912;37.490;2023-04-24T19:23:24;14.45;;;4.47;;
69954;SDS011;57279;55.912;37.490;2023-04-24T19:25:51;12.80;;;5.35;;
69954;SDS011;57279;55.912;37.490;2023-04-24T19:28:17;14.77;;;4.45;;
69954;SDS011;57279;55.912;37.490;2023-04-24T19:30:43;17.60;;;5.25;;
69954;SDS011;57279;55.912;37.490;2023-04-24T19:33:08;13.52;;;5.05;;
69954;SDS011;57279;55.912;37.490;2023-04-24T19:35:34;20.33;;;5.18;;
69954;SDS011;57279;55.912;37.490;2023-04-24T19:38:00;16.15;;;5.35;;
69954;SDS011;57279;55.912;37.490;2023-04-24T19:40:26;21.75;;;5.45;;
69954;SDS011;57279;55.912;37.490;2023-04-24T19:42:52;16.58;;;4.90;;
69954;SDS011;57279;55.912;37.490;2023-04-24T19:45:17;14.68;;;5.13;;
69954;SDS011;57279;55.912;37.490;2023-04-24T19:47:43;16.63;;;4.85;;
69954;SDS011;57279;55.912;37.490;2023-04-24T19:50:10;22.08;;;5.50;;
69954;SDS011;57279;55.912;37.490;2023-04-24T19:52:36;14.50;;;4.03;;
69954;SDS011;57279;55.912;37.490;2023-04-24T19:55:02;18.60;;;5.72;;
69954;SDS011;57279;55.912;37.490;2023-04-24T19:57:28;22.02;;;3.70;;
69954;SDS011;57279;55.912;37.490;2023-04-24T19:59:54;22.17;;;4.72;;
69954;SDS011;57279;55.912;37.490;2023-04-24T20:02:20;22.00;;;4.60;;
69954;SDS011;57279;55.912;37.490;2023-04-24T20:04:45;20.50;;;5.53;;
69954;SDS011;57279;55.912;37.490;2023-04-24T20:07:11;21.67;;;5.18;;
69954;SDS011;57279;55.912;37.490;2023-04-24T20:09:37;19.65;;;5.30;;
69954;SDS011;57279;55.912;37.490;2023-04-24T20:12:03;17.67;;;5.07;;
69954;SDS011;57279;55.912;37.490;2023-04-24T20:14:28;21.35;;;4.97;;
69954;SDS011;57279;55.912;37.490;2023-04-24T20:16:55;15.10;;;4.78;;
69954;SDS011;57279;55.912;37.490;2023-04-24T20:19:21;14.68;;;5.28;;
69954;SDS011;57279;55.912;37.490;2023-04-24T20:21:47;29.38;;;5.60;;
69954;SDS011;57279;55.912;37.490;2023-04-24T20:24:12;17.20;;;4.82;;
69954;SDS011;57279;55.912;37.490;2023-04-24T20:26:40;19.30;;;5.80;;
69954;SDS011;57279;55.912;37.490;2023-04-24T20:29:06;26.83;;;5.45;;
69954;SDS011;57279;55.912;37.490;2023-04-24T20:31:33;16.75;;;5.18;;
69954;SDS011;57279;55.912;37.490;2023-04-24T20:33:59;18.95;;;5.10;;
69954;SDS011;57279;55.912;37.490;2023-04-24T20:36:24;16.77;;;4.32;;
69954;SDS011;57279;55.912;37.490;2023-04-24T20:38:51;22.65;;;5.03;;
69954;SDS011;57279;55.912;37.490;2023-04-24T20:41:17;16.50;;;4.53;;
69954;SDS011;57279;55.912;37.490;2023-04-24T20:43:43;18.27;;;5.18;;
69954;SDS011;57279;55.912;37.490;2023-04-24T20:46:09;12.95;;;4.40;;
69954;SDS011;57279;55.912;37.490;2023-04-24T20:48:35;12.68;;;3.65;;
69954;SDS011;57279;55.912;37.490;2023-04-24T20:51:01;14.05;;;4.85;;
69954;SDS011;57279;55.912;37.490;2023-04-24T20:53:27;16.45;;;4.35;;
69954;SDS011;57279;55.912;37.490;2023-04-24T20:55:53;16.15;;;5.00;;
69954;SDS011;57279;55.912;37.490;2023-04-24T20:58:19;10.60;;;4.10;;
69954;SDS011;57279;55.912;37.490;2023-04-24T21:00:48;14.23;;;5.10;;
69954;SDS011;57279;55.912;37.490;2023-04-24T21:03:15;16.05;;;5.25;;
69954;SDS011;57279;55.912;37.490;2023-04-24T21:05:40;11.20;;;4.60;;
69954;SDS011;57279;55.912;37.490;2023-04-24T21:08:06;13.63;;;5.88;;
69954;SDS011;57279;55.912;37.490;2023-04-24T21:10:32;20.63;;;5.63;;
69954;SDS011;57279;55.912;37.490;2023-04-24T21:12:57;16.30;;;5.90;;
69954;SDS011;57279;55.912;37.490;2023-04-24T21:15:23;16.48;;;5.95;;
69954;SDS011;57279;55.912;37.490;2023-04-24T21:17:48;15.63;;;6.60;;
69954;SDS011;57279;55.912;37.490;2023-04-24T21:20:14;17.85;;;5.60;;
69954;SDS011;57279;55.912;37.490;2023-04-24T21:22:40;16.63;;;5.28;;
69954;SDS011;57279;55.912;37.490;2023-04-24T21:25:05;15.05;;;6.38;;
69954;SDS011;57279;55.912;37.490;2023-04-24T21:27:32;23.40;;;5.10;;
69954;SDS011;57279;55.912;37.490;2023-04-24T21:29:58;19.50;;;6.82;;
69954;SDS011;57279;55.912;37.490;2023-04-24T21:32:24;20.38;;;6.05;;
69954;SDS011;57279;55.912;37.490;2023-04-24T21:34:49;22.35;;;6.68;;
69954;SDS011;57279;55.912;37.490;2023-04-24T21:37:15;24.63;;;7.43;;
69954;SDS011;57279;55.912;37.490;2023-04-24T21:39:41;22.20;;;7.68;;
69954;SDS011;57279;55.912;37.490;2023-04-24T21:42:07;21.60;;;6.53;;